Time;durP1;ratioP1;P1;durP2;ratioP2;P2;SDS_P1;SDS_P2;PMS_P1;PMS_P2;Temp;Humidity;BMP_temperature;BMP_pressure;BME280_temperature;BME280_humidity;BME280_pressure;Samples;Min_cycle;Max_cycle;Signal;HPM_P1;HPM_P2
2021/12/29 00:01:36;;;;;;;329.70;21.27;;;6.80;99.90;;;;;;4818416;29;20117;-82
2021/12/29 00:04:02;;;;;;;211.93;18.15;;;6.80;99.90;;;;;;4815323;29;20086;-82
2021/12/29 00:06:28;;;;;;;193.03;18.67;;;6.80;99.90;;;;;;4815368;29;20037;-82
2021/12/29 00:08:58;;;;;;;245.70;19.83;;;6.80;99.90;;;;;;4831214;29;20314;-82
2021/12/29 00:11:26;;;;;;;201.43;16.95;;;6.70;99.90;;;;;;4810561;29;20048;-83
2021/12/29 00:13:51;;;;;;;214.95;20.00;;;6.70;99.90;;;;;;4821003;29;20471;-82
2021/12/29 00:16:17;;;;;;;146.07;19.60;;;6.70;99.90;;;;;;4837663;29;20045;-82
2021/12/29 00:18:44;;;;;;;151.33;20.43;;;6.70;99.90;;;;;;4846609;29;20048;-82
2021/12/29 00:21:10;;;;;;;211.10;24.58;;;6.70;99.90;;;;;;4838437;29;20101;-82
2021/12/29 00:23:36;;;;;;;173.55;23.67;;;6.70;99.90;;;;;;4831907;29;20343;-83
2021/12/29 00:26:03;;;;;;;188.20;23.63;;;6.70;99.90;;;;;;4840213;29;20529;-82
2021/12/29 00:28:29;;;;;;;180.55;20.52;;;6.70;99.90;;;;;;4819914;29;20064;-82
2021/12/29 00:30:55;;;;;;;178.73;20.50;;;6.70;99.90;;;;;;4816353;29;20077;-82
2021/12/29 00:33:21;;;;;;;189.23;20.40;;;6.70;99.90;;;;;;4829660;29;20033;-82
2021/12/29 00:35:48;;;;;;;186.83;18.73;;;6.70;99.90;;;;;;4804134;29;20294;-82
2021/12/29 00:38:13;;;;;;;181.70;18.00;;;6.70;99.90;;;;;;4837071;29;20048;-82
2021/12/29 00:40:40;;;;;;;156.50;16.67;;;6.70;99.90;;;;;;4825799;29;20046;-82
2021/12/29 00:43:07;;;;;;;163.50;16.33;;;6.70;99.90;;;;;;4838900;29;20218;-82
2021/12/29 00:45:36;;;;;;;142.70;13.77;;;6.70;99.90;;;;;;4821303;29;20042;-82
2021/12/29 00:48:10;;;;;;;130.98;14.05;;;6.70;99.90;;;;;;4832365;29;20036;-82
2021/12/29 00:50:37;;;;;;;168.13;14.20;;;6.70;99.90;;;;;;4825927;29;20077;-82
2021/12/29 00:53:02;;;;;;;188.38;15.80;;;6.70;99.90;;;;;;4831354;29;20042;-82
2021/12/29 00:55:28;;;;;;;139.80;14.03;;;6.70;99.90;;;;;;4818480;29;20052;-82
2021/12/29 00:57:54;;;;;;;154.27;14.07;;;6.70;99.90;;;;;;4820355;29;20050;-82
2021/12/29 01:00:23;;;;;;;140.20;13.77;;;6.70;99.90;;;;;;4820415;29;20081;-82
2021/12/29 01:02:50;;;;;;;138.35;13.82;;;6.80;99.90;;;;;;4830250;29;20046;-82
2021/12/29 01:05:17;;;;;;;172.30;15.57;;;6.80;99.90;;;;;;4828906;29;20049;-82
2021/12/29 01:07:44;;;;;;;147.88;16.02;;;6.80;99.90;;;;;;4824045;29;20109;-82
2021/12/29 01:10:12;;;;;;;146.88;16.90;;;6.80;99.90;;;;;;4834378;29;20037;-82
2021/12/29 01:12:46;;;;;;;138.93;17.35;;;6.80;99.90;;;;;;4832608;29;20181;-82
2021/12/29 01:15:14;;;;;;;132.93;18.17;;;6.80;99.90;;;;;;4805566;29;20758;-82
2021/12/29 01:17:40;;;;;;;131.82;19.48;;;6.90;99.90;;;;;;4830978;29;20109;-82
2021/12/29 01:20:06;;;;;;;122.53;19.63;;;6.90;99.90;;;;;;4815629;29;20523;-82
2021/12/29 01:22:32;;;;;;;117.75;20.55;;;7.00;99.90;;;;;;4821764;29;20053;-82
2021/12/29 01:24:58;;;;;;;138.70;23.97;;;7.00;99.90;;;;;;4794505;29;20046;-82
2021/12/29 01:27:23;;;;;;;119.77;22.20;;;7.00;99.90;;;;;;4817134;29;20061;-82
2021/12/29 01:29:49;;;;;;;121.67;24.80;;;7.00;99.90;;;;;;4813528;29;20480;-82
2021/12/29 01:32:15;;;;;;;98.20;23.93;;;7.10;99.90;;;;;;4820455;29;20057;-82
2021/12/29 01:34:41;;;;;;;87.82;24.10;;;7.10;99.90;;;;;;4819988;29;20114;-82
2021/12/29 01:37:07;;;;;;;81.27;24.97;;;7.10;99.90;;;;;;4802325;29;20395;-82
2021/12/29 01:39:33;;;;;;;98.83;28.17;;;7.20;99.90;;;;;;4806375;29;20041;-82
2021/12/29 01:41:58;;;;;;;86.43;25.37;;;7.30;99.90;;;;;;4820395;29;20045;-82
2021/12/29 01:44:26;;;;;;;87.37;28.73;;;7.30;99.90;;;;;;4838930;29;20512;-82
2021/12/29 01:46:54;;;;;;;93.20;29.27;;;7.40;99.90;;;;;;4837360;29;20398;-82
2021/12/29 01:49:20;;;;;;;82.00;27.80;;;7.30;99.90;;;;;;4849423;29;20083;-82
2021/12/29 01:51:59;;;;;;;81.77;28.03;;;7.30;99.90;;;;;;4824211;29;20041;-82
2021/12/29 01:54:24;;;;;;;89.00;27.73;;;7.30;99.90;;;;;;4836515;29;20097;-82
2021/12/29 01:56:58;;;;;;;82.50;25.93;;;7.30;99.90;;;;;;4819847;29;20045;-82
2021/12/29 01:59:25;;;;;;;72.05;24.05;;;7.30;99.90;;;;;;4827414;29;20049;-82
2021/12/29 02:01:51;;;;;;;75.03;23.95;;;7.30;99.90;;;;;;4823562;29;20045;-82
2021/12/29 02:04:18;;;;;;;88.10;25.77;;;7.30;99.90;;;;;;4836476;29;20061;-82
2021/12/29 02:06:43;;;;;;;86.68;24.60;;;7.30;99.90;;;;;;4824223;29;20132;-82
2021/12/29 02:09:10;;;;;;;78.87;23.73;;;7.30;99.90;;;;;;4819191;29;20072;-82
2021/12/29 02:11:37;;;;;;;77.65;23.25;;;7.30;99.90;;;;;;4832430;29;20097;-82
2021/12/29 02:14:06;;;;;;;70.63;21.33;;;7.30;99.90;;;;;;4828742;29;20037;-82
2021/12/29 02:16:32;;;;;;;56.45;18.17;;;7.30;99.90;;;;;;4830869;29;20072;-82
2021/12/29 02:19:02;;;;;;;68.35;20.67;;;7.30;99.90;;;;;;4846397;29;20041;-82
2021/12/29 02:21:30;;;;;;;54.50;17.92;;;7.20;99.90;;;;;;4826258;29;20106;-82
2021/12/29 02:26:36;;;;;;;46.05;16.88;;;7.30;99.90;;;;;;4848547;29;20129;-82
2021/12/29 02:29:11;;;;;;;55.88;17.85;;;7.30;99.90;;;;;;4822588;29;20057;-82
2021/12/29 02:31:37;;;;;;;52.58;16.80;;;7.30;99.90;;;;;;4830714;29;20044;-82
2021/12/29 02:34:04;;;;;;;44.42;15.27;;;7.30;99.90;;;;;;4837230;29;20102;-82
2021/12/29 02:36:30;;;;;;;39.10;14.50;;;7.30;99.90;;;;;;4835269;29;20042;-82
2021/12/29 02:38:57;;;;;;;39.83;13.20;;;7.30;99.90;;;;;;4838383;29;20046;-82
2021/12/29 02:41:27;;;;;;;33.28;12.73;;;7.30;99.90;;;;;;4820627;29;20105;-82
2021/12/29 02:44:00;;;;;;;39.72;13.57;;;7.40;99.90;;;;;;4820421;29;20052;-82
2021/12/29 02:46:28;;;;;;;34.20;12.73;;;7.30;99.90;;;;;;4850824;29;20050;-82
2021/12/29 02:48:56;;;;;;;32.45;12.00;;;7.30;99.90;;;;;;4836557;29;20041;-82
2021/12/29 02:51:22;;;;;;;36.45;12.43;;;7.30;99.90;;;;;;4814024;29;20109;-82
2021/12/29 02:53:48;;;;;;;31.17;10.87;;;7.30;99.90;;;;;;4816735;29;20070;-82
2021/12/29 02:56:14;;;;;;;25.50;10.47;;;7.30;99.90;;;;;;4815004;29;20108;-82
2021/12/29 02:58:40;;;;;;;28.40;11.23;;;7.30;99.90;;;;;;4822659;29;20105;-82
2021/12/29 03:01:10;;;;;;;33.43;11.93;;;7.40;99.90;;;;;;4819212;29;20162;-82
2021/12/29 03:03:39;;;;;;;33.80;10.98;;;7.40;99.90;;;;;;4830685;29;20052;-81
2021/12/29 03:06:07;;;;;;;30.35;10.77;;;7.30;99.90;;;;;;4828511;29;20038;-81
2021/12/29 03:08:33;;;;;;;31.40;12.50;;;7.30;99.90;;;;;;4837419;29;20078;-81
2021/12/29 03:10:59;;;;;;;47.83;13.40;;;7.40;99.90;;;;;;4816087;29;20543;-81
2021/12/29 03:13:27;;;;;;;46.30;14.67;;;7.40;99.90;;;;;;4821788;29;20125;-81
2021/12/29 03:15:54;;;;;;;44.65;14.70;;;7.40;99.90;;;;;;4829870;29;20499;-82
2021/12/29 03:18:19;;;;;;;46.72;15.88;;;7.40;99.90;;;;;;4818392;29;20045;-82
2021/12/29 03:20:46;;;;;;;50.03;16.07;;;7.40;99.90;;;;;;4841454;29;20059;-81
2021/12/29 03:23:12;;;;;;;39.38;14.57;;;7.40;99.90;;;;;;4818902;29;20421;-81
2021/12/29 03:25:38;;;;;;;48.92;15.70;;;7.40;99.90;;;;;;4833381;29;20042;-81
2021/12/29 03:28:05;;;;;;;53.43;17.23;;;7.50;99.90;;;;;;4827029;29;20105;-81
2021/12/29 03:30:35;;;;;;;52.00;17.15;;;7.40;99.90;;;;;;4829248;29;20626;-81
2021/12/29 03:33:03;;;;;;;52.38;16.98;;;7.40;99.90;;;;;;4820200;29;20038;-81
2021/12/29 03:35:35;;;;;;;58.03;17.85;;;7.40;99.90;;;;;;4828158;29;20376;-81
2021/12/29 03:38:02;;;;;;;54.10;16.85;;;7.40;99.90;;;;;;4839757;29;20045;-81
2021/12/29 03:40:28;;;;;;;61.10;17.10;;;7.40;99.90;;;;;;4832680;29;20510;-81
2021/12/29 03:42:55;;;;;;;52.90;15.67;;;7.30;99.90;;;;;;4818740;29;20084;-81
2021/12/29 03:45:22;;;;;;;55.08;15.65;;;7.40;99.90;;;;;;4836482;29;20124;-81
2021/12/29 03:47:48;;;;;;;70.95;17.45;;;7.40;99.90;;;;;;4831041;29;20072;-81
2021/12/29 03:50:14;;;;;;;57.33;17.42;;;7.30;99.90;;;;;;4819574;29;20042;-81
2021/12/29 03:52:40;;;;;;;54.03;16.87;;;7.30;99.90;;;;;;4809238;29;20095;-81
2021/12/29 03:55:07;;;;;;;67.50;17.57;;;7.30;99.90;;;;;;4856720;29;20076;-81
2021/12/29 03:57:33;;;;;;;67.07;18.58;;;7.30;99.90;;;;;;4826802;29;20046;-81
2021/12/29 03:59:59;;;;;;;82.60;19.73;;;7.30;99.90;;;;;;4832840;29;20049;-81
2021/12/29 04:02:24;;;;;;;67.50;17.50;;;7.20;99.90;;;;;;4800172;29;20438;-81
2021/12/29 04:04:50;;;;;;;71.73;19.03;;;7.20;99.90;;;;;;4815938;29;20121;-81
2021/12/29 04:07:16;;;;;;;79.33;19.70;;;7.20;99.90;;;;;;4834479;29;20045;-81
2021/12/29 04:09:42;;;;;;;75.27;19.87;;;7.20;99.90;;;;;;4812036;29;20142;-81
2021/12/29 04:12:08;;;;;;;71.07;18.40;;;7.20;99.90;;;;;;4813044;29;20061;-81
2021/12/29 04:14:34;;;;;;;77.85;19.55;;;7.20;99.90;;;;;;4817738;29;20049;-80
2021/12/29 04:17:08;;;;;;;74.37;17.13;;;7.20;99.90;;;;;;4817280;29;20029;-81
2021/12/29 04:22:20;;;;;;;95.50;20.63;;;7.20;99.90;;;;;;4822342;29;20053;-81
2021/12/29 04:24:45;;;;;;;74.83;17.40;;;7.20;99.90;;;;;;4823428;29;20081;-81
2021/12/29 04:27:11;;;;;;;60.93;17.20;;;7.10;99.90;;;;;;4827665;29;20073;-81
2021/12/29 04:29:37;;;;;;;73.57;17.50;;;7.10;99.90;;;;;;4813056;29;20054;-81
2021/12/29 04:32:03;;;;;;;65.67;18.20;;;7.10;99.90;;;;;;4798167;29;20453;-81
2021/12/29 04:34:29;;;;;;;59.55;17.45;;;7.10;99.90;;;;;;4815493;29;20485;-81
2021/12/29 04:36:54;;;;;;;70.10;18.60;;;7.20;99.90;;;;;;4813631;29;20057;-81
2021/12/29 04:39:20;;;;;;;62.40;19.13;;;7.10;99.90;;;;;;4810723;29;20046;-81
2021/12/29 04:41:46;;;;;;;73.40;19.03;;;7.10;99.90;;;;;;4823298;29;20141;-81
2021/12/29 04:44:11;;;;;;;60.17;19.13;;;7.10;99.90;;;;;;4818999;29;20582;-81
2021/12/29 04:46:40;;;;;;;67.40;19.13;;;7.10;99.90;;;;;;4800854;29;20137;-81
2021/12/29 04:49:10;;;;;;;59.08;18.60;;;7.10;99.90;;;;;;4816096;29;20049;-81
2021/12/29 04:51:43;;;;;;;67.72;19.20;;;7.10;99.90;;;;;;4830876;29;20092;-81
2021/12/29 04:54:09;;;;;;;60.80;18.15;;;7.10;99.90;;;;;;4815501;29;20097;-81
2021/12/29 04:56:35;;;;;;;56.57;18.20;;;7.00;99.90;;;;;;4818369;29;20104;-81
2021/12/29 04:59:01;;;;;;;64.72;17.83;;;7.00;99.90;;;;;;4815884;29;20042;-81
2021/12/29 05:01:27;;;;;;;61.28;18.00;;;7.00;99.90;;;;;;4815235;29;20046;-81
2021/12/29 05:03:54;;;;;;;75.33;19.37;;;7.00;99.90;;;;;;4837730;29;20102;-81
2021/12/29 05:08:48;;;;;;;61.50;17.88;;;7.10;99.90;;;;;;4830817;29;20052;-81
2021/12/29 05:11:15;;;;;;;68.90;18.60;;;7.10;99.90;;;;;;4836630;29;20049;-81
2021/12/29 05:13:43;;;;;;;73.10;18.80;;;7.10;99.90;;;;;;4838409;29;20042;-81
2021/12/29 05:16:09;;;;;;;69.63;18.50;;;7.00;99.90;;;;;;4833847;29;20053;-81
2021/12/29 05:18:37;;;;;;;51.23;15.67;;;7.10;99.90;;;;;;4835324;29;20045;-81
2021/12/29 05:21:05;;;;;;;66.40;18.02;;;7.10;99.90;;;;;;4835153;29;20049;-81
2021/12/29 05:23:31;;;;;;;59.65;16.38;;;7.10;99.90;;;;;;4828097;29;20045;-81
2021/12/29 05:25:57;;;;;;;55.87;16.50;;;7.10;99.90;;;;;;4801003;29;20694;-81
2021/12/29 05:28:24;;;;;;;67.37;16.90;;;7.10;99.90;;;;;;4832865;29;20456;-81
2021/12/29 05:30:51;;;;;;;60.35;17.02;;;7.10;99.90;;;;;;4812849;29;20050;-81
2021/12/29 05:33:17;;;;;;;60.33;16.77;;;7.10;99.90;;;;;;4835407;29;20042;-81
2021/12/29 05:35:43;;;;;;;59.17;17.10;;;7.10;99.90;;;;;;4835082;29;20045;-81
2021/12/29 05:38:09;;;;;;;69.43;17.60;;;7.10;99.90;;;;;;4832538;29;20092;-81
2021/12/29 05:40:36;;;;;;;66.60;18.15;;;7.10;99.90;;;;;;4808874;29;20139;-81
2021/12/29 05:43:02;;;;;;;60.72;18.17;;;7.10;99.90;;;;;;4824700;29;20068;-81
2021/12/29 05:45:29;;;;;;;62.67;18.70;;;7.10;99.90;;;;;;4837517;29;20057;-81
2021/12/29 05:47:58;;;;;;;57.95;17.73;;;7.10;99.90;;;;;;4820024;29;20097;-81
2021/12/29 05:50:27;;;;;;;53.33;16.80;;;7.10;99.90;;;;;;4830934;29;20580;-81
2021/12/29 05:52:54;;;;;;;59.25;16.23;;;7.10;99.90;;;;;;4848596;29;20084;-81
2021/12/29 05:55:21;;;;;;;57.78;16.58;;;7.10;99.90;;;;;;4833687;29;20053;-81
2021/12/29 05:57:47;;;;;;;46.38;13.70;;;7.10;99.90;;;;;;4832451;29;20104;-81
2021/12/29 06:00:15;;;;;;;55.53;14.50;;;7.20;99.90;;;;;;4823609;29;20080;-81
2021/12/29 06:02:41;;;;;;;47.65;14.73;;;7.10;99.90;;;;;;4835402;29;20052;-81
2021/12/29 06:05:07;;;;;;;67.40;15.30;;;7.10;99.90;;;;;;4820741;29;20046;-81
2021/12/29 06:07:34;;;;;;;61.85;15.05;;;7.10;99.90;;;;;;4823358;29;20042;-81
2021/12/29 06:10:00;;;;;;;66.50;15.63;;;7.10;99.90;;;;;;4809432;29;20394;-80
2021/12/29 06:12:26;;;;;;;58.70;14.90;;;7.10;99.90;;;;;;4816214;29;20033;-82
2021/12/29 06:14:52;;;;;;;70.50;14.93;;;7.10;99.90;;;;;;4825071;29;20055;-82
2021/12/29 06:17:18;;;;;;;72.00;15.07;;;7.10;99.90;;;;;;4825300;29;20058;-82
2021/12/29 06:19:44;;;;;;;81.77;15.83;;;7.10;99.90;;;;;;4801941;29;20118;-82
2021/12/29 06:22:11;;;;;;;70.57;16.13;;;7.10;99.90;;;;;;4831263;29;20045;-82
2021/12/29 06:24:42;;;;;;;85.55;15.98;;;7.10;99.90;;;;;;4818133;29;20053;-82
2021/12/29 06:27:09;;;;;;;90.93;18.17;;;7.20;99.90;;;;;;4842181;29;20129;-82
2021/12/29 06:29:36;;;;;;;88.60;17.80;;;7.20;99.90;;;;;;4816360;29;20085;-82
2021/12/29 06:32:03;;;;;;;75.93;15.60;;;7.20;99.90;;;;;;4808897;29;20042;-82
2021/12/29 06:34:29;;;;;;;74.10;15.75;;;7.20;99.90;;;;;;4838072;29;20052;-82
2021/12/29 06:36:56;;;;;;;98.85;18.00;;;7.20;99.90;;;;;;4799097;29;20046;-82
2021/12/29 06:39:22;;;;;;;88.25;16.52;;;7.20;99.90;;;;;;4801276;29;20041;-82
2021/12/29 06:41:48;;;;;;;107.40;18.77;;;7.20;99.90;;;;;;4807259;29;20410;-82
2021/12/29 06:44:14;;;;;;;144.10;20.40;;;7.20;99.90;;;;;;4804417;29;20056;-82
2021/12/29 06:46:40;;;;;;;107.10;18.33;;;7.20;99.90;;;;;;4838547;29;20045;-82
2021/12/29 06:49:05;;;;;;;116.65;17.60;;;7.20;99.90;;;;;;4814496;29;20038;-82
2021/12/29 06:51:31;;;;;;;127.17;18.03;;;7.20;99.90;;;;;;4829217;29;20042;-82
2021/12/29 06:53:57;;;;;;;136.90;17.97;;;7.20;99.90;;;;;;4842497;29;20041;-82
2021/12/29 06:56:23;;;;;;;105.77;17.33;;;7.20;99.90;;;;;;4831269;29;20129;-82
2021/12/29 06:58:48;;;;;;;140.93;18.63;;;7.30;99.90;;;;;;4844875;29;20046;-82
2021/12/29 07:01:16;;;;;;;103.97;16.23;;;7.30;99.90;;;;;;4806936;29;20049;-82
2021/12/29 07:03:42;;;;;;;116.28;17.50;;;7.30;99.90;;;;;;4821019;29;20054;-82
2021/12/29 07:06:08;;;;;;;127.78;17.58;;;7.30;99.90;;;;;;4839385;29;20065;-82
2021/12/29 07:08:34;;;;;;;145.93;17.57;;;7.30;99.90;;;;;;4812777;29;20049;-82
2021/12/29 07:11:01;;;;;;;126.33;15.83;;;7.30;99.90;;;;;;4801308;29;20069;-82
2021/12/29 07:13:27;;;;;;;132.00;18.15;;;7.30;99.90;;;;;;4837198;29;20042;-82
2021/12/29 07:15:52;;;;;;;121.80;17.30;;;7.30;99.90;;;;;;4833189;29;20053;-82
2021/12/29 07:18:18;;;;;;;130.87;18.33;;;7.40;99.90;;;;;;4819269;29;20044;-82
2021/12/29 07:20:44;;;;;;;122.23;17.33;;;7.40;99.90;;;;;;4812048;29;20046;-82
2021/12/29 07:23:11;;;;;;;111.10;17.20;;;7.40;99.90;;;;;;4795703;29;20084;-82
2021/12/29 07:25:37;;;;;;;117.82;18.50;;;7.50;99.90;;;;;;4813132;29;20050;-82
2021/12/29 07:28:03;;;;;;;115.93;17.43;;;7.40;99.90;;;;;;4831092;29;20491;-82
2021/12/29 07:30:28;;;;;;;128.77;19.13;;;7.40;99.90;;;;;;4801619;29;20157;-82
2021/12/29 07:32:54;;;;;;;150.73;20.67;;;7.40;99.90;;;;;;4831168;29;20411;-82
2021/12/29 07:35:20;;;;;;;166.57;21.33;;;7.40;99.90;;;;;;4831664;29;20534;-82
2021/12/29 07:37:46;;;;;;;162.45;21.00;;;7.40;99.90;;;;;;4799959;29;20041;-81
2021/12/29 07:40:12;;;;;;;151.77;18.90;;;7.40;99.90;;;;;;4829581;29;20036;-81
2021/12/29 07:42:40;;;;;;;176.70;21.67;;;7.40;99.90;;;;;;4808092;29;20037;-81
2021/12/29 07:45:08;;;;;;;208.82;25.45;;;7.40;99.90;;;;;;4821063;29;20064;-81
2021/12/29 07:47:35;;;;;;;185.70;22.98;;;7.40;99.90;;;;;;4843225;29;20068;-81
2021/12/29 07:50:03;;;;;;;223.45;25.42;;;7.40;99.90;;;;;;4838714;29;20061;-81
2021/12/29 07:52:29;;;;;;;136.25;19.20;;;7.40;99.90;;;;;;4820714;29;20042;-81
2021/12/29 07:54:54;;;;;;;188.27;22.70;;;7.30;99.90;;;;;;4801943;29;20070;-81
2021/12/29 07:57:20;;;;;;;183.57;22.27;;;7.30;99.90;;;;;;4816488;29;20037;-81
2021/12/29 07:59:47;;;;;;;162.73;20.53;;;7.40;99.90;;;;;;4822433;29;20042;-81
2021/12/29 08:02:17;;;;;;;149.73;18.67;;;7.30;99.90;;;;;;4805363;29;20046;-81
2021/12/29 08:04:44;;;;;;;96.60;15.73;;;7.30;99.90;;;;;;4830393;29;20087;-81
2021/12/29 08:07:09;;;;;;;88.30;15.57;;;7.30;99.90;;;;;;4832868;29;20057;-81
2021/12/29 08:09:35;;;;;;;80.77;15.77;;;7.30;99.90;;;;;;4802172;29;20105;-82
2021/12/29 08:12:01;;;;;;;58.30;13.80;;;7.30;99.90;;;;;;4826366;29;20426;-81
2021/12/29 08:14:27;;;;;;;60.77;12.67;;;7.30;99.90;;;;;;4826253;29;20041;-81
2021/12/29 08:16:52;;;;;;;62.07;13.43;;;7.30;99.90;;;;;;4826391;29;20057;-81
2021/12/29 08:19:18;;;;;;;77.97;14.77;;;7.30;99.90;;;;;;4804526;29;20049;-81
2021/12/29 08:21:44;;;;;;;53.80;12.83;;;7.30;99.90;;;;;;4803878;29;20156;-81
2021/12/29 08:24:09;;;;;;;62.03;13.73;;;7.30;99.90;;;;;;4829479;29;20105;-80
2021/12/29 08:26:35;;;;;;;54.57;12.97;;;7.30;99.90;;;;;;4831541;29;20049;-80
2021/12/29 08:29:01;;;;;;;56.23;12.50;;;7.30;99.90;;;;;;4817794;29;20061;-80
2021/12/29 08:31:27;;;;;;;48.45;12.13;;;7.30;99.90;;;;;;4814176;29;20054;-81
2021/12/29 08:33:54;;;;;;;47.63;12.17;;;7.30;99.90;;;;;;4834125;29;20148;-81
2021/12/29 08:36:20;;;;;;;46.97;12.10;;;7.30;99.90;;;;;;4823190;29;20294;-80
2021/12/29 08:38:47;;;;;;;44.47;11.70;;;7.30;99.90;;;;;;4830364;29;20067;-80
2021/12/29 08:41:13;;;;;;;36.78;11.05;;;7.30;99.90;;;;;;4826950;29;20447;-80
2021/12/29 08:43:39;;;;;;;41.45;10.48;;;7.30;99.90;;;;;;4825229;29;20042;-80
2021/12/29 08:46:05;;;;;;;40.03;11.10;;;7.30;99.90;;;;;;4832500;29;20125;-81
2021/12/29 08:48:31;;;;;;;38.33;10.88;;;7.30;99.90;;;;;;4831936;29;20132;-81
2021/12/29 08:50:59;;;;;;;34.93;9.93;;;7.30;99.90;;;;;;4831531;29;20562;-81
2021/12/29 08:53:26;;;;;;;39.47;10.10;;;7.30;99.90;;;;;;4834349;29;20048;-81
2021/12/29 08:55:55;;;;;;;36.83;9.77;;;7.30;99.90;;;;;;4833876;29;20506;-81
2021/12/29 08:58:24;;;;;;;31.27;9.80;;;7.30;99.90;;;;;;4833529;29;20045;-81
2021/12/29 09:00:51;;;;;;;32.45;8.82;;;7.40;99.90;;;;;;4830988;29;20083;-81
2021/12/29 09:03:20;;;;;;;28.90;9.68;;;7.30;99.90;;;;;;4819206;29;20038;-81
2021/12/29 09:05:46;;;;;;;28.38;8.50;;;7.30;99.90;;;;;;4814711;29;20191;-81
2021/12/29 09:08:12;;;;;;;22.15;7.90;;;7.30;99.90;;;;;;4842763;29;20116;-81
2021/12/29 09:10:38;;;;;;;24.73;7.17;;;7.40;99.90;;;;;;4829599;29;20050;-81
2021/12/29 09:13:04;;;;;;;27.33;7.63;;;7.30;99.90;;;;;;4827435;29;20045;-81
2021/12/29 09:15:31;;;;;;;25.27;7.30;;;7.30;99.90;;;;;;4812790;29;20041;-81
2021/12/29 09:17:59;;;;;;;24.27;8.13;;;7.40;99.90;;;;;;4830697;29;20129;-81
2021/12/29 09:20:31;;;;;;;24.33;6.90;;;7.40;99.90;;;;;;4815853;29;20503;-81
2021/12/29 09:23:08;;;;;;;20.98;7.75;;;7.40;99.90;;;;;;4825992;29;20083;-81
2021/12/29 09:25:35;;;;;;;19.08;6.95;;;7.40;99.90;;;;;;4844788;29;20511;-81
2021/12/29 09:28:01;;;;;;;25.38;7.03;;;7.40;99.90;;;;;;4811735;29;20318;-81
2021/12/29 09:30:33;;;;;;;26.10;6.60;;;7.40;99.90;;;;;;4827172;29;20055;-81
2021/12/29 09:32:59;;;;;;;25.48;7.47;;;7.40;99.90;;;;;;4840051;29;20076;-81
2021/12/29 09:35:25;;;;;;;27.40;6.95;;;7.40;99.90;;;;;;4830118;29;20064;-81
2021/12/29 09:37:52;;;;;;;22.73;7.10;;;7.40;99.90;;;;;;4824066;29;20544;-81
2021/12/29 09:40:21;;;;;;;22.92;6.70;;;7.50;99.90;;;;;;4830502;29;20042;-81
2021/12/29 09:42:48;;;;;;;32.72;7.05;;;7.50;99.90;;;;;;4818847;29;20054;-81
2021/12/29 09:45:14;;;;;;;21.00;6.95;;;7.50;99.90;;;;;;4804760;29;20050;-81
2021/12/29 09:47:40;;;;;;;31.73;9.50;;;7.50;99.90;;;;;;4823493;29;20087;-81
2021/12/29 09:50:12;;;;;;;28.33;9.17;;;7.40;99.90;;;;;;4834214;29;20502;-81
2021/12/29 09:52:38;;;;;;;23.63;8.30;;;7.40;99.90;;;;;;4849953;29;20101;-81
2021/12/29 09:55:09;;;;;;;25.63;7.30;;;7.40;99.90;;;;;;4835694;29;20079;-81
2021/12/29 09:57:37;;;;;;;24.33;6.20;;;7.40;99.90;;;;;;4843440;29;20065;-81
2021/12/29 10:00:09;;;;;;;24.65;6.95;;;7.40;99.90;;;;;;4842652;29;20038;-81
2021/12/29 10:02:38;;;;;;;27.88;6.85;;;7.40;99.90;;;;;;4837934;29;20050;-82
2021/12/29 10:05:04;;;;;;;23.23;5.20;;;7.40;99.90;;;;;;4821909;29;20045;-82
2021/12/29 10:07:30;;;;;;;30.95;5.53;;;7.30;99.90;;;;;;4841273;29;20090;-82
2021/12/29 10:09:56;;;;;;;23.05;5.32;;;7.30;99.90;;;;;;4826751;29;20569;-82
2021/12/29 10:12:22;;;;;;;26.43;5.27;;;7.30;99.90;;;;;;4806263;29;20046;-82
2021/12/29 10:14:56;;;;;;;24.98;5.97;;;7.30;99.90;;;;;;4806769;29;20037;-82
2021/12/29 10:17:26;;;;;;;32.95;6.30;;;7.30;99.90;;;;;;4849030;29;20086;-82
2021/12/29 10:20:05;;;;;;;27.75;5.03;;;7.20;99.90;;;;;;4834324;29;20406;-82
2021/12/29 10:22:31;;;;;;;23.00;5.38;;;7.20;99.90;;;;;;4854629;29;20568;-81
2021/12/29 10:25:11;;;;;;;29.58;5.20;;;7.20;99.90;;;;;;4825214;29;20518;-81
2021/12/29 10:27:39;;;;;;;21.65;4.25;;;7.20;99.90;;;;;;4841239;29;20038;-81
2021/12/29 10:30:26;;;;;;;30.60;6.18;;;7.20;99.90;;;;;;4838857;29;20061;-81
2021/12/29 10:32:56;;;;;;;32.47;5.20;;;7.20;99.90;;;;;;4850046;29;20049;-81
2021/12/29 10:35:29;;;;;;;29.92;4.93;;;7.20;99.90;;;;;;4851826;29;20049;-81
2021/12/29 10:38:13;;;;;;;26.92;4.95;;;7.20;99.90;;;;;;4841027;29;20039;-81
2021/12/29 10:40:39;;;;;;;21.05;5.30;;;7.20;99.90;;;;;;4834537;29;20124;-81
2021/12/29 10:43:05;;;;;;;29.30;5.60;;;7.20;99.90;;;;;;4841968;29;20042;-81
2021/12/29 10:45:35;;;;;;;25.57;5.20;;;7.20;99.90;;;;;;4821692;29;20136;-81
2021/12/29 10:48:16;;;;;;;24.00;4.90;;;7.30;99.90;;;;;;4833316;29;20636;-81
2021/12/29 10:51:04;;;;;;;32.70;6.00;;;7.30;99.90;;;;;;4835357;29;20406;-81
2021/12/29 10:53:32;;;;;;;27.55;5.75;;;7.30;99.90;;;;;;4838994;29;20418;-81
2021/12/29 10:55:58;;;;;;;25.58;5.47;;;7.30;99.90;;;;;;4820345;29;20049;-81
2021/12/29 10:58:27;;;;;;;25.83;5.20;;;7.30;99.90;;;;;;4840555;29;20060;-81
2021/12/29 11:01:00;;;;;;;26.05;5.35;;;7.40;99.90;;;;;;4837965;29;20494;-81
2021/12/29 11:03:27;;;;;;;28.17;5.22;;;7.40;99.90;;;;;;4840409;29;20079;-81
2021/12/29 11:06:00;;;;;;;28.17;5.82;;;7.40;99.90;;;;;;4837356;29;20045;-81
2021/12/29 11:08:48;;;;;;;39.25;6.30;;;7.50;99.90;;;;;;4841245;29;20045;-81
2021/12/29 11:11:14;;;;;;;22.83;6.25;;;7.50;99.90;;;;;;4836757;29;20060;-81
2021/12/29 11:13:41;;;;;;;24.93;5.60;;;7.60;99.90;;;;;;4830678;29;20042;-81
2021/12/29 11:16:09;;;;;;;20.42;5.28;;;7.60;99.90;;;;;;4814943;29;20411;-81
2021/12/29 11:18:51;;;;;;;17.50;4.78;;;7.60;99.90;;;;;;4822950;29;20041;-81
2021/12/29 11:21:29;;;;;;;25.38;5.22;;;7.60;99.90;;;;;;4809388;29;20073;-81
2021/12/29 11:23:56;;;;;;;25.50;4.85;;;7.60;99.90;;;;;;4835117;29;20057;-81
2021/12/29 11:26:33;;;;;;;21.92;4.88;;;7.70;99.90;;;;;;4818319;29;20128;-81
2021/12/29 11:29:09;;;;;;;17.55;4.93;;;7.60;99.90;;;;;;4816415;29;20042;-81
2021/12/29 11:31:40;;;;;;;21.98;4.47;;;7.70;99.90;;;;;;4846840;29;20502;-81
2021/12/29 11:34:27;;;;;;;19.52;4.65;;;7.70;99.90;;;;;;4831709;29;20128;-81
2021/12/29 11:37:19;;;;;;;19.83;4.32;;;7.70;99.90;;;;;;4848539;29;20553;-81
2021/12/29 11:39:46;;;;;;;23.83;4.90;;;7.60;99.90;;;;;;4815840;29;20396;-81
2021/12/29 11:42:13;;;;;;;14.07;4.53;;;7.60;99.90;;;;;;4855146;29;20084;-81
2021/12/29 11:44:40;;;;;;;15.82;3.97;;;7.60;99.90;;;;;;4839753;29;20056;-81
2021/12/29 11:47:08;;;;;;;15.57;4.28;;;7.60;99.90;;;;;;4819556;29;20100;-81
2021/12/29 11:49:33;;;;;;;16.45;3.75;;;7.70;99.90;;;;;;4831363;29;20411;-81
2021/12/29 11:52:17;;;;;;;13.50;4.03;;;7.60;99.90;;;;;;4815413;29;20044;-81
2021/12/29 11:55:05;;;;;;;13.05;3.92;;;7.60;99.90;;;;;;4828110;29;20582;-82
2021/12/29 11:57:32;;;;;;;16.35;5.38;;;7.60;99.90;;;;;;4832002;29;20056;-82
2021/12/29 12:00:12;;;;;;;23.45;4.93;;;7.60;99.90;;;;;;4843390;29;20045;-81
2021/12/29 12:02:39;;;;;;;17.60;6.38;;;7.60;99.90;;;;;;4838333;29;20362;-81
2021/12/29 12:05:12;;;;;;;17.20;6.95;;;7.60;99.90;;;;;;4815993;29;20040;-82
2021/12/29 12:07:39;;;;;;;15.93;5.45;;;7.60;99.90;;;;;;4836823;29;20037;-82
2021/12/29 12:10:12;;;;;;;19.70;6.00;;;7.60;99.90;;;;;;4840410;29;20083;-82
2021/12/29 12:12:42;;;;;;;13.07;5.35;;;7.60;99.90;;;;;;4835488;29;20046;-82
2021/12/29 12:15:10;;;;;;;14.10;6.20;;;7.60;99.90;;;;;;4835135;29;20038;-82
2021/12/29 12:17:36;;;;;;;15.02;5.80;;;7.60;99.90;;;;;;4838214;29;20077;-82
2021/12/29 12:20:04;;;;;;;14.05;5.93;;;7.60;99.90;;;;;;4831847;29;20573;-82
2021/12/29 12:22:41;;;;;;;14.93;5.90;;;7.60;99.90;;;;;;4835549;29;20045;-82
2021/12/29 12:25:07;;;;;;;15.90;5.10;;;7.60;99.90;;;;;;4844260;29;20082;-82
2021/12/29 12:27:42;;;;;;;11.50;4.90;;;7.60;99.90;;;;;;4818417;29;20101;-82
2021/12/29 12:30:18;;;;;;;16.25;5.30;;;7.60;99.90;;;;;;4811824;29;20050;-82
2021/12/29 12:32:51;;;;;;;15.27;5.38;;;7.60;99.90;;;;;;4843406;29;20085;-82
2021/12/29 12:35:37;;;;;;;11.20;5.20;;;7.60;99.90;;;;;;4835245;29;20448;-82
2021/12/29 12:38:27;;;;;;;17.48;8.80;;;7.60;99.90;;;;;;4820683;29;20132;-82
2021/12/29 12:41:12;;;;;;;17.55;6.55;;;7.60;99.90;;;;;;4823520;29;20132;-82
2021/12/29 12:43:57;;;;;;;13.52;5.18;;;7.60;99.90;;;;;;4844511;29;20045;-82
2021/12/29 12:46:43;;;;;;;14.98;4.95;;;7.60;99.90;;;;;;4842816;29;20066;-82
2021/12/29 12:49:23;;;;;;;10.90;5.35;;;7.50;99.90;;;;;;4833108;29;20045;-82
2021/12/29 12:52:05;;;;;;;14.27;5.43;;;7.50;99.90;;;;;;4810816;29;20063;-82